createdAt,value
2019-01-19T00:01:23.398Z,10.80
2019-01-19T00:04:22.161Z,10.40
2019-01-19T00:07:29.284Z,10.40
2019-01-19T00:10:36.279Z,9.83
2019-01-19T00:13:49.703Z,9.73
2019-01-19T00:17:03.935Z,9.80
2019-01-19T00:19:56.399Z,8.43
2019-01-19T00:22:56.360Z,9.60
2019-01-19T00:25:49.735Z,9.70
2019-01-19T00:28:31.484Z,9.20
2019-01-19T00:31:23.615Z,8.95
2019-01-19T00:34:40.291Z,9.70
2019-01-19T00:37:56.745Z,10.03
2019-01-19T00:40:57.373Z,9.50
2019-01-19T00:44:09.226Z,9.18
2019-01-19T00:47:28.979Z,9.50
2019-01-19T00:50:32.461Z,9.23
2019-01-19T00:53:40.482Z,8.95
2019-01-19T00:56:42.636Z,9.58
2019-01-19T00:59:17.463Z,8.38
2019-01-19T01:02:36.439Z,7.40
2019-01-19T01:05:11.714Z,5.63
2019-01-19T01:08:08.884Z,6.90
2019-01-19T01:11:16.049Z,5.97
2019-01-19T01:14:20.058Z,5.78
2019-01-19T01:17:21.036Z,6.33
2019-01-19T01:20:22.251Z,5.63
2019-01-19T01:23:26.324Z,6.47
2019-01-19T01:26:34.006Z,5.80
2019-01-19T01:29:48.020Z,6.55
2019-01-19T01:32:24.659Z,6.35
2019-01-19T01:35:42.122Z,5.57
2019-01-19T01:38:52.200Z,7.10
2019-01-19T01:42:13.676Z,7.22
2019-01-19T01:45:24.904Z,6.80
2019-01-19T01:48:26.329Z,5.70
2019-01-19T01:51:21.816Z,5.83
2019-01-19T01:54:33.210Z,6.87
2019-01-19T01:57:09.911Z,6.35
2019-01-19T02:00:26.231Z,5.65
2019-01-19T02:03:38.950Z,7.28
2019-01-19T02:06:27.367Z,6.40
2019-01-19T02:09:52.428Z,5.00
2019-01-19T02:12:53.262Z,6.53
2019-01-19T02:16:01.100Z,6.42
2019-01-19T02:18:56.105Z,5.65
2019-01-19T02:21:49.155Z,5.90
2019-01-19T02:24:50.234Z,6.25
2019-01-19T02:27:55.366Z,6.20
2019-01-19T02:30:49.142Z,6.35
2019-01-19T02:34:12.397Z,5.78
2019-01-19T02:37:23.691Z,5.65
2019-01-19T02:40:10.649Z,5.85
2019-01-19T02:43:23.905Z,7.17
2019-01-19T02:46:37.428Z,6.10
2019-01-19T02:49:41.625Z,6.33
2019-01-19T02:52:33.084Z,6.95
2019-01-19T02:55:39.299Z,6.40
2019-01-19T02:58:48.185Z,7.90
2019-01-19T03:01:55.460Z,6.55
2019-01-19T03:04:50.777Z,6.72
2019-01-19T03:07:45.571Z,6.78
2019-01-19T03:11:09.308Z,6.20
2019-01-19T03:14:08.258Z,6.95
2019-01-19T03:17:04.931Z,7.05
2019-01-19T03:20:37.913Z,7.60
2019-01-19T03:23:46.599Z,6.92
2019-01-19T03:27:00.254Z,8.00
2019-01-19T03:30:20.453Z,7.53
2019-01-19T03:33:28.133Z,7.08
2019-01-19T03:36:40.629Z,7.77
2019-01-19T03:39:50.228Z,7.78
2019-01-19T03:42:56.115Z,7.75
2019-01-19T03:46:09.507Z,8.68
2019-01-19T03:49:08.966Z,7.22
2019-01-19T03:51:49.916Z,7.95
2019-01-19T03:54:35.418Z,8.43
2019-01-19T03:57:32.149Z,8.10
2019-01-19T04:00:40.175Z,8.10
2019-01-19T04:03:45.938Z,7.60
2019-01-19T04:06:49.407Z,8.60
2019-01-19T04:10:17.301Z,7.83
2019-01-19T04:13:46.759Z,8.05
2019-01-19T04:16:47.357Z,8.20
2019-01-19T04:19:52.984Z,7.92
2019-01-19T04:22:48.248Z,8.60
2019-01-19T04:25:28.638Z,7.85
2019-01-19T04:28:00.565Z,8.08
2019-01-19T04:30:30.842Z,8.55
2019-01-19T04:33:01.101Z,8.48
2019-01-19T04:35:31.364Z,8.63
2019-01-19T04:38:01.630Z,10.10
2019-01-19T04:40:31.878Z,9.03
2019-01-19T04:43:02.145Z,8.10
2019-01-19T04:45:32.415Z,9.00
2019-01-19T04:48:02.651Z,8.53
2019-01-19T04:50:32.873Z,8.07
2019-01-19T04:53:03.142Z,7.90
2019-01-19T04:55:33.435Z,8.78
2019-01-19T04:58:03.683Z,9.20
2019-01-19T05:00:33.925Z,8.35
2019-01-19T05:03:04.269Z,9.03
2019-01-19T05:05:34.529Z,7.80
2019-01-19T05:08:04.767Z,8.48
2019-01-19T05:10:35.027Z,8.45
2019-01-19T05:13:05.271Z,8.70
2019-01-19T05:15:35.545Z,8.78
2019-01-19T05:18:06.395Z,8.10
2019-01-19T05:20:39.546Z,8.70
2019-01-19T05:23:10.804Z,9.33
2019-01-19T05:25:41.171Z,9.35
2019-01-19T05:28:11.505Z,9.03
2019-01-19T05:30:41.710Z,9.28
2019-01-19T05:33:11.976Z,8.60
2019-01-19T05:35:42.212Z,9.13
2019-01-19T05:38:12.477Z,9.35
2019-01-19T05:40:42.841Z,9.40
2019-01-19T05:43:13.328Z,8.98
2019-01-19T05:45:43.589Z,9.25
2019-01-19T05:48:13.859Z,8.98
2019-01-19T05:50:44.191Z,9.23
2019-01-19T05:53:14.931Z,9.13
2019-01-19T05:55:45.184Z,9.93
2019-01-19T05:58:15.459Z,10.30
2019-01-19T06:00:45.744Z,9.48
2019-01-19T06:03:16.005Z,9.30
2019-01-19T06:05:46.571Z,9.30
2019-01-19T06:08:19.864Z,11.33
2019-01-19T06:10:51.172Z,10.18
2019-01-19T06:13:21.452Z,10.55
2019-01-19T06:15:51.723Z,10.63
2019-01-19T06:18:21.982Z,9.58
2019-01-19T06:20:52.883Z,10.20
2019-01-19T06:23:23.155Z,9.85
2019-01-19T06:25:53.450Z,9.50
2019-01-19T06:28:23.678Z,11.40
2019-01-19T06:30:53.970Z,10.13
2019-01-19T06:33:24.285Z,10.70
2019-01-19T06:35:54.545Z,11.65
2019-01-19T06:38:24.814Z,11.53
2019-01-19T06:40:55.094Z,10.80
2019-01-19T06:43:25.373Z,9.98
2019-01-19T06:45:55.706Z,9.68
2019-01-19T06:48:25.988Z,9.90
2019-01-19T06:50:56.254Z,8.83
2019-01-19T06:53:26.572Z,10.45
2019-01-19T06:55:56.871Z,10.08
2019-01-19T06:58:27.124Z,9.88
2019-01-19T07:00:57.457Z,10.72
2019-01-19T07:03:27.708Z,11.83
2019-01-19T07:05:57.984Z,10.50
2019-01-19T07:08:28.245Z,10.30
2019-01-19T07:10:58.583Z,10.45
2019-01-19T07:13:28.867Z,10.38
2019-01-19T07:25:55.665Z,16.90
2019-01-19T07:28:25.963Z,16.90
2019-01-19T07:30:56.290Z,16.40
2019-01-19T07:33:26.605Z,12.98
2019-01-19T07:35:56.886Z,13.30
2019-01-19T07:38:27.167Z,12.68
2019-01-19T07:40:57.513Z,12.35
2019-01-19T07:43:28.237Z,11.90
2019-01-19T07:45:58.567Z,11.75
2019-01-19T07:48:28.846Z,12.00
2019-01-19T07:50:59.118Z,12.07
2019-01-19T07:53:29.442Z,11.35
2019-01-19T07:55:59.710Z,11.60
2019-01-19T07:58:29.955Z,11.48
2019-01-19T08:01:00.258Z,11.50
2019-01-19T08:03:30.574Z,11.15
2019-01-19T08:06:00.944Z,11.33
2019-01-19T08:08:31.254Z,10.98
2019-01-19T08:11:01.596Z,12.55
2019-01-19T08:13:31.903Z,12.40
2019-01-19T08:16:02.280Z,12.65
2019-01-19T08:18:33.550Z,12.90
2019-01-19T08:21:03.863Z,11.17
2019-01-19T08:23:34.197Z,11.83
2019-01-19T08:26:04.564Z,10.60
2019-01-19T08:28:34.855Z,12.07
2019-01-19T08:31:05.279Z,11.03
2019-01-19T08:33:35.594Z,13.10
2019-01-19T08:36:06.420Z,11.43
2019-01-19T08:38:36.761Z,10.58
2019-01-19T08:41:07.074Z,11.85
2019-01-19T08:43:43.459Z,12.33
2019-01-19T08:46:13.751Z,10.82
2019-01-19T08:48:44.095Z,12.68
2019-01-19T08:51:14.470Z,11.40
2019-01-19T08:53:44.999Z,11.50
2019-01-19T08:56:15.302Z,11.65
2019-01-19T08:58:45.598Z,12.25
2019-01-19T09:01:15.884Z,12.70
2019-01-19T09:03:46.390Z,12.65
2019-01-19T09:06:16.669Z,12.30
2019-01-19T09:08:47.106Z,11.75
2019-01-19T09:11:17.399Z,11.73
2019-01-19T09:13:47.650Z,12.78
2019-01-19T09:16:20.599Z,11.57
2019-01-19T09:18:51.010Z,11.68
2019-01-19T09:21:22.471Z,13.60
2019-01-19T09:24:04.807Z,11.95
2019-01-19T09:26:35.126Z,12.05
2019-01-19T09:29:05.423Z,13.30
2019-01-19T09:31:35.705Z,12.82
2019-01-19T09:34:05.999Z,11.97
2019-01-19T09:36:36.395Z,11.27
2019-01-19T09:39:10.773Z,11.80
2019-01-19T09:41:42.472Z,11.83
2019-01-19T09:44:12.879Z,12.45
2019-01-19T09:46:43.365Z,12.58
2019-01-19T09:49:13.686Z,13.30
2019-01-19T09:51:44.021Z,11.30
2019-01-19T09:54:14.335Z,11.70
2019-01-19T09:56:44.675Z,10.70
2019-01-19T09:59:14.936Z,11.80
2019-01-19T10:01:46.591Z,12.15
2019-01-19T10:04:16.883Z,11.57
2019-01-19T10:06:48.237Z,12.58
2019-01-19T10:09:18.624Z,12.10
2019-01-19T10:11:48.881Z,11.57
2019-01-19T10:14:19.216Z,12.28
2019-01-19T10:16:49.746Z,13.32
2019-01-19T10:19:20.065Z,12.75
2019-01-19T10:21:50.445Z,12.73
2019-01-19T10:24:20.765Z,11.03
2019-01-19T10:26:51.139Z,11.97
2019-01-19T10:29:21.562Z,12.20
2019-01-19T10:31:51.817Z,9.85
2019-01-19T10:34:22.096Z,10.25
2019-01-19T10:36:52.391Z,9.98
2019-01-19T10:39:22.675Z,10.13
2019-01-19T10:41:52.957Z,8.80
2019-01-19T10:44:23.265Z,8.78
2019-01-19T10:46:53.584Z,9.88
2019-01-19T10:49:23.928Z,10.30
2019-01-19T10:51:59.364Z,9.88
2019-01-19T10:54:26.201Z,10.10
2019-01-19T10:56:56.551Z,10.60
2019-01-19T10:59:26.821Z,10.63
2019-01-19T11:01:57.094Z,9.93
2019-01-19T11:04:27.396Z,11.00
2019-01-19T11:06:57.802Z,9.88
2019-01-19T11:09:28.118Z,10.50
2019-01-19T11:11:58.413Z,10.98
2019-01-19T11:14:28.775Z,9.43
2019-01-19T11:17:17.980Z,10.72
2019-01-19T11:19:49.051Z,9.33
2019-01-19T11:22:19.309Z,10.48
2019-01-19T11:24:49.814Z,10.05
2019-01-19T11:27:20.067Z,9.73
2019-01-19T11:29:50.656Z,10.55
2019-01-19T11:32:20.930Z,8.95
2019-01-19T11:34:51.288Z,8.13
2019-01-19T11:37:21.551Z,9.00
2019-01-19T11:39:51.954Z,7.67
2019-01-19T11:42:22.215Z,8.25
2019-01-19T11:44:52.487Z,7.67
2019-01-19T11:47:22.809Z,7.75
2019-01-19T11:49:53.162Z,7.43
2019-01-19T11:52:24.998Z,6.15
2019-01-19T11:54:55.268Z,7.30
2019-01-19T11:57:26.519Z,6.67
2019-01-19T11:59:56.825Z,7.25
2019-01-19T12:02:27.126Z,7.80
2019-01-19T12:04:57.437Z,7.53
2019-01-19T12:07:27.770Z,8.08
2019-01-19T12:09:58.046Z,8.15
2019-01-19T12:12:28.475Z,8.70
2019-01-19T12:14:58.827Z,7.83
2019-01-19T12:17:29.161Z,8.55
2019-01-19T12:19:59.443Z,8.23
2019-01-19T12:22:29.702Z,7.78
2019-01-19T12:25:00.034Z,9.00
2019-01-19T12:27:30.302Z,8.68
2019-01-19T12:30:00.597Z,8.78
2019-01-19T12:32:31.100Z,8.50
2019-01-19T12:35:01.524Z,8.23
2019-01-19T12:37:31.943Z,9.58
2019-01-19T12:40:02.246Z,7.40
2019-01-19T12:42:32.565Z,6.25
2019-01-19T12:45:02.859Z,6.40
2019-01-19T12:47:33.242Z,5.60
2019-01-19T12:50:04.437Z,7.47
2019-01-19T12:52:34.723Z,6.67
2019-01-19T12:55:05.380Z,5.35
2019-01-19T12:57:35.653Z,6.15
2019-01-19T13:00:06.852Z,6.97
2019-01-19T13:02:37.143Z,7.65
2019-01-19T13:05:14.936Z,6.70
2019-01-19T13:07:45.341Z,6.30
2019-01-19T13:10:25.526Z,6.90
2019-01-19T13:13:03.062Z,7.05
2019-01-19T13:16:29.744Z,6.15
2019-01-19T13:19:15.007Z,6.37
2019-01-19T13:22:40.495Z,7.17
2019-01-19T13:25:52.029Z,7.08
2019-01-19T13:28:52.560Z,7.90
2019-01-19T13:31:45.813Z,8.50
2019-01-19T13:35:03.141Z,8.78
2019-01-19T13:38:20.829Z,9.30
2019-01-19T13:41:42.848Z,9.30
2019-01-19T13:44:39.995Z,8.93
2019-01-19T13:47:58.617Z,9.05
2019-01-19T13:51:02.015Z,9.63
2019-01-19T13:54:12.805Z,11.12
2019-01-19T13:57:11.779Z,11.40
2019-01-19T13:59:57.749Z,12.47
2019-01-19T14:03:15.020Z,11.50
2019-01-19T14:06:29.299Z,11.70
2019-01-19T14:09:36.762Z,11.43
2019-01-19T14:12:47.986Z,9.93
2019-01-19T14:15:24.028Z,10.78
2019-01-19T14:18:07.633Z,10.15
2019-01-19T14:21:21.807Z,10.30
2019-01-19T14:24:13.182Z,9.15
2019-01-19T14:27:10.343Z,9.65
2019-01-19T14:30:07.951Z,9.25
2019-01-19T14:33:14.072Z,9.20
2019-01-19T14:36:16.833Z,9.57
2019-01-19T14:39:17.608Z,10.15
2019-01-19T14:42:19.306Z,9.45
2019-01-19T14:45:22.720Z,9.43
2019-01-19T14:48:30.501Z,9.05
2019-01-19T14:51:28.315Z,10.20
2019-01-19T14:54:58.854Z,9.75
2019-01-19T14:57:48.269Z,9.68
2019-01-19T15:00:55.288Z,10.15
2019-01-19T15:04:05.388Z,9.33
2019-01-19T15:07:03.984Z,9.63
2019-01-19T15:10:21.588Z,10.18
2019-01-19T15:13:36.312Z,11.22
2019-01-19T15:16:29.142Z,10.30
2019-01-19T15:19:35.440Z,9.83
2019-01-19T15:22:40.670Z,9.88
2019-01-19T15:26:01.311Z,9.95
2019-01-19T15:29:12.830Z,8.40
2019-01-19T15:32:09.525Z,9.30
2019-01-19T15:35:15.978Z,8.43
2019-01-19T15:38:46.576Z,6.92
2019-01-19T15:42:06.029Z,7.15
2019-01-19T15:45:04.231Z,6.37
2019-01-19T15:48:18.084Z,7.05
2019-01-19T15:51:38.741Z,6.80
2019-01-19T15:55:02.172Z,6.78
2019-01-19T15:58:00.944Z,7.25
2019-01-19T16:03:55.273Z,6.33
2019-01-19T16:06:51.230Z,6.97
2019-01-19T16:10:16.712Z,7.25
2019-01-19T16:13:25.134Z,6.80
2019-01-19T16:16:41.269Z,6.55
2019-01-19T16:19:53.387Z,6.85
2019-01-19T16:22:54.370Z,8.55
2019-01-19T16:26:18.117Z,7.47
2019-01-19T16:29:25.197Z,8.80
2019-01-19T16:32:32.013Z,9.08
2019-01-19T16:35:30.056Z,9.90
2019-01-19T16:38:10.631Z,10.05
2019-01-19T16:41:24.933Z,11.03
2019-01-19T16:44:18.641Z,10.28
2019-01-19T16:47:15.209Z,10.88
2019-01-19T16:50:07.839Z,10.65
2019-01-19T16:53:06.393Z,10.78
2019-01-19T16:56:09.670Z,10.32
2019-01-19T16:59:19.772Z,11.15
2019-01-19T17:02:16.210Z,11.10
2019-01-19T17:05:24.094Z,9.58
2019-01-19T17:08:42.838Z,10.30
2019-01-19T17:12:00.302Z,14.03
2019-01-19T17:15:20.489Z,13.83
2019-01-19T17:18:26.807Z,11.18
2019-01-19T17:21:59.568Z,13.50
2019-01-19T17:25:22.391Z,11.88
2019-01-19T17:28:39.944Z,16.10
2019-01-19T17:31:53.318Z,15.83
2019-01-19T17:34:45.499Z,16.12
2019-01-19T17:37:39.106Z,20.05
2019-01-19T17:40:38.775Z,15.25
2019-01-19T17:43:41.761Z,16.62
2019-01-19T17:46:40.165Z,14.38
2019-01-19T17:49:50.218Z,14.30
2019-01-19T17:53:10.508Z,14.53
2019-01-19T17:56:11.487Z,11.57
2019-01-19T17:59:21.350Z,10.20
2019-01-19T18:02:44.852Z,9.23
2019-01-19T18:05:42.318Z,10.70
2019-01-19T18:08:46.057Z,9.78
2019-01-19T18:11:52.989Z,11.40
2019-01-19T18:14:55.839Z,10.95
2019-01-19T18:18:01.214Z,9.85
2019-01-19T18:21:14.523Z,10.23
2019-01-19T18:24:26.028Z,10.43
2019-01-19T18:27:49.606Z,12.28
2019-01-19T18:30:42.354Z,10.82
2019-01-19T18:33:35.795Z,10.95
2019-01-19T18:36:56.272Z,10.70
2019-01-19T18:40:25.496Z,10.60
2019-01-19T18:43:30.413Z,11.60
2019-01-19T18:46:41.607Z,11.55
2019-01-19T18:49:41.307Z,12.55
2019-01-19T18:52:23.114Z,15.70
2019-01-19T18:55:25.876Z,15.63
2019-01-19T18:58:37.592Z,15.20
2019-01-19T19:01:53.251Z,13.50
2019-01-19T19:05:09.513Z,11.73
2019-01-19T19:08:18.234Z,16.32
2019-01-19T19:11:24.563Z,16.10
2019-01-19T19:14:06.740Z,15.90
2019-01-19T19:17:22.470Z,15.48
2019-01-19T19:20:27.243Z,15.30
2019-01-19T19:23:37.365Z,14.98
2019-01-19T19:27:03.551Z,16.10
2019-01-19T19:29:55.787Z,14.93
2019-01-19T19:32:55.334Z,15.40
2019-01-19T19:36:19.496Z,17.70
2019-01-19T19:39:35.848Z,18.70
2019-01-19T19:42:34.741Z,46.33
2019-01-19T19:45:40.534Z,38.33
2019-01-19T19:49:09.887Z,49.77
2019-01-19T19:52:00.642Z,63.95
2019-01-19T19:54:33.541Z,39.03
2019-01-19T19:57:04.475Z,28.70
2019-01-19T19:59:34.804Z,22.67
2019-01-19T20:02:05.169Z,18.87
2019-01-19T20:04:35.483Z,18.87
2019-01-19T20:07:06.472Z,19.57
2019-01-19T20:09:37.000Z,19.70
2019-01-19T20:12:08.395Z,21.20
2019-01-19T20:14:38.759Z,18.95
2019-01-19T20:17:09.471Z,22.37
2019-01-19T20:19:39.935Z,23.10
2019-01-19T20:22:10.245Z,23.47
2019-01-19T20:24:40.579Z,24.20
2019-01-19T20:27:10.966Z,23.20
2019-01-19T20:29:41.376Z,21.85
2019-01-19T20:32:11.661Z,23.65
2019-01-19T20:34:42.037Z,24.20
2019-01-19T20:37:12.347Z,24.37
2019-01-19T20:39:42.842Z,25.00
2019-01-19T20:42:13.329Z,24.98
2019-01-19T20:44:43.663Z,21.15
2019-01-19T20:47:14.030Z,20.05
2019-01-19T20:49:44.398Z,20.03
2019-01-19T20:52:14.739Z,20.60
2019-01-19T20:54:45.320Z,20.70
2019-01-19T20:57:15.763Z,18.75
2019-01-19T20:59:46.227Z,17.73
2019-01-19T21:02:16.532Z,20.75
2019-01-19T21:04:46.876Z,22.80
2019-01-19T21:07:17.210Z,20.80
2019-01-19T21:09:47.578Z,24.65
2019-01-19T21:12:17.938Z,27.05
2019-01-19T21:14:48.253Z,23.00
2019-01-19T21:17:18.615Z,23.67
2019-01-19T21:19:49.019Z,21.40
2019-01-19T21:22:19.478Z,20.82
2019-01-19T21:24:49.813Z,21.50
2019-01-19T21:27:20.277Z,26.10
2019-01-19T21:29:50.634Z,29.48
2019-01-19T21:32:22.150Z,32.42
2019-01-19T21:34:52.488Z,32.83
2019-01-19T21:37:22.833Z,33.80
2019-01-19T21:39:53.149Z,36.55
2019-01-19T21:42:23.526Z,31.75
2019-01-19T21:44:53.926Z,29.87
2019-01-19T21:47:24.289Z,29.20
2019-01-19T21:49:54.624Z,32.08
2019-01-19T21:52:24.938Z,32.75
2019-01-19T21:54:55.370Z,34.70
2019-01-19T21:57:25.653Z,33.55
2019-01-19T21:59:55.988Z,31.35
2019-01-19T22:02:26.319Z,33.18
2019-01-19T22:04:56.669Z,31.35
2019-01-19T22:07:27.038Z,30.08
2019-01-19T22:09:57.370Z,27.32
2019-01-19T22:12:27.769Z,24.55
2019-01-19T22:14:58.110Z,24.98
2019-01-19T22:17:28.448Z,24.20
2019-01-19T22:19:58.781Z,23.30
2019-01-19T22:22:29.204Z,22.22
2019-01-19T22:24:59.632Z,24.30
2019-01-19T22:27:30.325Z,23.30
2019-01-19T22:30:00.643Z,24.35
2019-01-19T22:32:31.075Z,24.05
2019-01-19T22:35:01.358Z,23.05
2019-01-19T22:37:31.741Z,23.52
2019-01-19T22:40:02.076Z,24.32
2019-01-19T22:42:32.480Z,24.25
2019-01-19T22:45:02.841Z,23.67
2019-01-19T22:47:35.607Z,22.98
2019-01-19T22:50:09.207Z,22.90
2019-01-19T22:52:39.625Z,24.37
2019-01-19T22:55:10.680Z,28.67
2019-01-19T22:57:41.351Z,27.65
2019-01-19T23:01:11.118Z,30.52
2019-01-19T23:03:41.931Z,26.23
2019-01-19T23:06:12.293Z,23.70
2019-01-19T23:08:42.647Z,23.42
2019-01-19T23:11:13.060Z,24.60
2019-01-19T23:13:43.366Z,19.32
2019-01-19T23:16:13.677Z,19.02
2019-01-19T23:18:43.967Z,19.60
2019-01-19T23:21:14.310Z,18.10
2019-01-19T23:23:44.586Z,18.27
2019-01-19T23:26:15.221Z,17.73
2019-01-19T23:28:45.511Z,18.15
2019-01-19T23:31:15.792Z,18.00
2019-01-19T23:33:46.094Z,18.77
2019-01-19T23:36:16.367Z,16.50
2019-01-19T23:38:48.059Z,15.43
2019-01-19T23:41:18.441Z,15.30
2019-01-19T23:43:48.759Z,14.98
2019-01-19T23:46:19.030Z,15.48
2019-01-19T23:48:49.333Z,13.72
2019-01-19T23:51:19.668Z,15.28
2019-01-19T23:53:49.938Z,16.07
2019-01-19T23:56:20.336Z,14.35
2019-01-19T23:58:50.598Z,13.90
